sensor_id;sensor_type;location;lat;lon;timestamp;P1;durP1;ratioP1;P2;durP2;ratioP2
15061;SDS011;7630;50.306;8.566;2023-03-14T00:00:39;4.43;;;4.03;;
15061;SDS011;7630;50.306;8.566;2023-03-14T00:04:40;4.00;;;3.70;;
15061;SDS011;7630;50.306;8.566;2023-03-14T00:08:41;5.33;;;4.83;;
15061;SDS011;7630;50.306;8.566;2023-03-14T00:12:44;4.67;;;3.77;;
15061;SDS011;7630;50.306;8.566;2023-03-14T00:16:45;6.07;;;5.47;;
15061;SDS011;7630;50.306;8.566;2023-03-14T00:20:47;3.77;;;3.13;;
15061;SDS011;7630;50.306;8.566;2023-03-14T00:24:48;4.67;;;3.97;;
15061;SDS011;7630;50.306;8.566;2023-03-14T00:28:51;4.33;;;3.40;;
15061;SDS011;7630;50.306;8.566;2023-03-14T00:32:53;5.20;;;4.13;;
15061;SDS011;7630;50.306;8.566;2023-03-14T00:36:54;8.17;;;4.60;;
15061;SDS011;7630;50.306;8.566;2023-03-14T00:40:55;6.43;;;4.03;;
15061;SDS011;7630;50.306;8.566;2023-03-14T00:44:56;4.87;;;4.13;;
15061;SDS011;7630;50.306;8.566;2023-03-14T00:48:58;7.43;;;4.17;;
15061;SDS011;7630;50.306;8.566;2023-03-14T00:52:59;6.53;;;4.60;;
15061;SDS011;7630;50.306;8.566;2023-03-14T00:57:00;4.50;;;4.10;;
15061;SDS011;7630;50.306;8.566;2023-03-14T01:01:05;5.23;;;4.40;;
15061;SDS011;7630;50.306;8.566;2023-03-14T01:05:08;5.87;;;5.30;;
15061;SDS011;7630;50.306;8.566;2023-03-14T01:09:11;9.40;;;5.30;;
15061;SDS011;7630;50.306;8.566;2023-03-14T01:13:12;9.73;;;5.57;;
15061;SDS011;7630;50.306;8.566;2023-03-14T01:21:31;5.50;;;5.10;;
15061;SDS011;7630;50.306;8.566;2023-03-14T01:25:33;9.43;;;5.27;;
15061;SDS011;7630;50.306;8.566;2023-03-14T01:29:34;9.20;;;7.10;;
15061;SDS011;7630;50.306;8.566;2023-03-14T01:33:36;6.37;;;4.27;;
15061;SDS011;7630;50.306;8.566;2023-03-14T01:37:37;6.77;;;5.37;;
15061;SDS011;7630;50.306;8.566;2023-03-14T01:41:39;12.77;;;4.90;;
15061;SDS011;7630;50.306;8.566;2023-03-14T01:50:09;6.23;;;4.37;;
15061;SDS011;7630;50.306;8.566;2023-03-14T01:54:20;7.67;;;3.90;;
15061;SDS011;7630;50.306;8.566;2023-03-14T01:58:24;8.07;;;3.73;;
15061;SDS011;7630;50.306;8.566;2023-03-14T02:02:28;4.63;;;3.50;;
15061;SDS011;7630;50.306;8.566;2023-03-14T02:06:44;6.20;;;3.13;;
15061;SDS011;7630;50.306;8.566;2023-03-14T02:10:53;6.73;;;3.20;;
15061;SDS011;7630;50.306;8.566;2023-03-14T02:14:54;5.83;;;3.10;;
15061;SDS011;7630;50.306;8.566;2023-03-14T02:18:55;6.03;;;3.60;;
15061;SDS011;7630;50.306;8.566;2023-03-14T02:22:56;7.03;;;4.07;;
15061;SDS011;7630;50.306;8.566;2023-03-14T02:31:14;6.83;;;3.43;;
15061;SDS011;7630;50.306;8.566;2023-03-14T02:35:18;6.00;;;3.80;;
15061;SDS011;7630;50.306;8.566;2023-03-14T02:39:22;6.50;;;2.80;;
15061;SDS011;7630;50.306;8.566;2023-03-14T02:43:26;5.33;;;3.17;;
15061;SDS011;7630;50.306;8.566;2023-03-14T02:47:28;5.80;;;2.90;;
15061;SDS011;7630;50.306;8.566;2023-03-14T02:51:30;4.50;;;2.87;;
15061;SDS011;7630;50.306;8.566;2023-03-14T02:55:33;5.30;;;2.87;;
15061;SDS011;7630;50.306;8.566;2023-03-14T02:59:34;8.03;;;3.50;;
15061;SDS011;7630;50.306;8.566;2023-03-14T03:03:35;4.07;;;3.20;;
15061;SDS011;7630;50.306;8.566;2023-03-14T03:07:36;6.77;;;3.20;;
15061;SDS011;7630;50.306;8.566;2023-03-14T03:11:37;6.97;;;3.20;;
15061;SDS011;7630;50.306;8.566;2023-03-14T03:15:38;5.77;;;3.37;;
15061;SDS011;7630;50.306;8.566;2023-03-14T03:19:40;8.60;;;3.30;;
15061;SDS011;7630;50.306;8.566;2023-03-14T03:23:41;8.00;;;3.10;;
15061;SDS011;7630;50.306;8.566;2023-03-14T03:27:42;4.23;;;3.47;;
15061;SDS011;7630;50.306;8.566;2023-03-14T03:31:43;5.70;;;3.20;;
15061;SDS011;7630;50.306;8.566;2023-03-14T03:35:47;4.93;;;3.20;;
15061;SDS011;7630;50.306;8.566;2023-03-14T03:39:50;4.40;;;3.37;;
15061;SDS011;7630;50.306;8.566;2023-03-14T03:43:52;3.23;;;2.87;;
15061;SDS011;7630;50.306;8.566;2023-03-14T03:47:54;6.50;;;2.97;;
15061;SDS011;7630;50.306;8.566;2023-03-14T03:51:56;4.87;;;3.93;;
15061;SDS011;7630;50.306;8.566;2023-03-14T03:55:57;6.27;;;4.27;;
15061;SDS011;7630;50.306;8.566;2023-03-14T03:59:58;4.97;;;4.40;;
15061;SDS011;7630;50.306;8.566;2023-03-14T04:03:59;7.63;;;3.97;;
15061;SDS011;7630;50.306;8.566;2023-03-14T04:08:00;4.07;;;3.77;;
15061;SDS011;7630;50.306;8.566;2023-03-14T04:12:02;4.47;;;3.73;;
15061;SDS011;7630;50.306;8.566;2023-03-14T04:16:03;5.10;;;3.50;;
15061;SDS011;7630;50.306;8.566;2023-03-14T04:20:07;5.77;;;3.93;;
15061;SDS011;7630;50.306;8.566;2023-03-14T04:24:10;5.43;;;4.63;;
15061;SDS011;7630;50.306;8.566;2023-03-14T04:28:12;7.73;;;4.27;;
15061;SDS011;7630;50.306;8.566;2023-03-14T04:32:13;7.97;;;4.03;;
15061;SDS011;7630;50.306;8.566;2023-03-14T04:36:14;8.20;;;6.13;;
15061;SDS011;7630;50.306;8.566;2023-03-14T04:40:15;10.07;;;3.87;;
15061;SDS011;7630;50.306;8.566;2023-03-14T04:44:18;6.73;;;3.60;;
15061;SDS011;7630;50.306;8.566;2023-03-14T04:48:19;6.23;;;3.70;;
15061;SDS011;7630;50.306;8.566;2023-03-14T04:52:21;4.20;;;3.90;;
15061;SDS011;7630;50.306;8.566;2023-03-14T04:56:23;5.77;;;3.13;;
15061;SDS011;7630;50.306;8.566;2023-03-14T05:00:24;3.87;;;2.57;;
15061;SDS011;7630;50.306;8.566;2023-03-14T05:04:25;4.03;;;2.13;;
15061;SDS011;7630;50.306;8.566;2023-03-14T05:08:27;3.83;;;2.50;;
15061;SDS011;7630;50.306;8.566;2023-03-14T05:12:28;2.53;;;2.33;;
15061;SDS011;7630;50.306;8.566;2023-03-14T05:16:29;4.23;;;2.33;;
15061;SDS011;7630;50.306;8.566;2023-03-14T05:20:30;14.17;;;3.00;;
15061;SDS011;7630;50.306;8.566;2023-03-14T05:24:31;2.10;;;2.00;;
15061;SDS011;7630;50.306;8.566;2023-03-14T05:28:33;4.53;;;3.77;;
15061;SDS011;7630;50.306;8.566;2023-03-14T05:32:34;4.30;;;2.47;;
15061;SDS011;7630;50.306;8.566;2023-03-14T05:36:35;4.57;;;2.53;;
15061;SDS011;7630;50.306;8.566;2023-03-14T05:40:37;2.50;;;2.00;;
15061;SDS011;7630;50.306;8.566;2023-03-14T05:44:38;5.10;;;1.90;;
15061;SDS011;7630;50.306;8.566;2023-03-14T05:48:39;2.73;;;1.97;;
15061;SDS011;7630;50.306;8.566;2023-03-14T05:52:40;2.90;;;2.70;;
15061;SDS011;7630;50.306;8.566;2023-03-14T05:56:41;2.60;;;1.70;;
15061;SDS011;7630;50.306;8.566;2023-03-14T06:00:42;2.30;;;1.80;;
15061;SDS011;7630;50.306;8.566;2023-03-14T06:04:43;2.83;;;2.23;;
15061;SDS011;7630;50.306;8.566;2023-03-14T06:08:45;4.00;;;2.17;;
15061;SDS011;7630;50.306;8.566;2023-03-14T06:12:46;4.17;;;2.23;;
15061;SDS011;7630;50.306;8.566;2023-03-14T06:16:47;4.13;;;2.33;;
15061;SDS011;7630;50.306;8.566;2023-03-14T06:20:52;4.93;;;2.57;;
15061;SDS011;7630;50.306;8.566;2023-03-14T06:24:55;5.37;;;2.67;;
15061;SDS011;7630;50.306;8.566;2023-03-14T06:28:56;2.87;;;1.67;;
15061;SDS011;7630;50.306;8.566;2023-03-14T06:32:57;5.73;;;2.40;;
15061;SDS011;7630;50.306;8.566;2023-03-14T06:36:58;2.63;;;2.20;;
15061;SDS011;7630;50.306;8.566;2023-03-14T06:41:03;2.13;;;1.80;;
15061;SDS011;7630;50.306;8.566;2023-03-14T06:45:06;3.87;;;2.07;;
15061;SDS011;7630;50.306;8.566;2023-03-14T06:49:08;5.83;;;2.00;;
15061;SDS011;7630;50.306;8.566;2023-03-14T06:53:09;1.90;;;1.40;;
15061;SDS011;7630;50.306;8.566;2023-03-14T06:57:10;1.70;;;1.60;;
15061;SDS011;7630;50.306;8.566;2023-03-14T07:01:30;2.17;;;1.60;;
15061;SDS011;7630;50.306;8.566;2023-03-14T07:05:25;2.10;;;1.77;;
15061;SDS011;7630;50.306;8.566;2023-03-14T07:09:26;3.60;;;2.03;;
15061;SDS011;7630;50.306;8.566;2023-03-14T07:13:27;2.20;;;1.90;;
15061;SDS011;7630;50.306;8.566;2023-03-14T07:17:29;4.93;;;1.97;;
15061;SDS011;7630;50.306;8.566;2023-03-14T07:21:30;4.00;;;1.80;;
15061;SDS011;7630;50.306;8.566;2023-03-14T07:25:33;1.83;;;1.50;;
15061;SDS011;7630;50.306;8.566;2023-03-14T07:29:34;2.27;;;2.03;;
15061;SDS011;7630;50.306;8.566;2023-03-14T07:33:35;1.77;;;1.67;;
15061;SDS011;7630;50.306;8.566;2023-03-14T07:37:37;1.37;;;1.30;;
15061;SDS011;7630;50.306;8.566;2023-03-14T07:41:38;1.40;;;1.30;;
15061;SDS011;7630;50.306;8.566;2023-03-14T07:45:39;3.10;;;2.47;;
15061;SDS011;7630;50.306;8.566;2023-03-14T07:49:42;2.13;;;1.97;;
15061;SDS011;7630;50.306;8.566;2023-03-14T07:53:43;1.67;;;1.57;;
15061;SDS011;7630;50.306;8.566;2023-03-14T07:57:44;2.17;;;1.93;;
15061;SDS011;7630;50.306;8.566;2023-03-14T08:01:46;2.87;;;2.07;;
15061;SDS011;7630;50.306;8.566;2023-03-14T08:05:48;2.17;;;2.07;;
15061;SDS011;7630;50.306;8.566;2023-03-14T08:09:50;2.50;;;2.00;;
15061;SDS011;7630;50.306;8.566;2023-03-14T08:13:51;2.10;;;1.77;;
15061;SDS011;7630;50.306;8.566;2023-03-14T08:17:53;2.63;;;2.00;;
15061;SDS011;7630;50.306;8.566;2023-03-14T08:21:54;2.30;;;2.10;;
15061;SDS011;7630;50.306;8.566;2023-03-14T08:25:55;1.70;;;1.60;;
15061;SDS011;7630;50.306;8.566;2023-03-14T08:29:57;2.07;;;1.60;;
15061;SDS011;7630;50.306;8.566;2023-03-14T08:33:59;2.93;;;2.13;;
15061;SDS011;7630;50.306;8.566;2023-03-14T08:38:00;2.57;;;2.33;;
15061;SDS011;7630;50.306;8.566;2023-03-14T08:42:02;3.57;;;2.10;;
15061;SDS011;7630;50.306;8.566;2023-03-14T08:46:05;1.90;;;1.80;;
15061;SDS011;7630;50.306;8.566;2023-03-14T08:50:06;2.10;;;1.80;;
15061;SDS011;7630;50.306;8.566;2023-03-14T08:54:10;1.40;;;1.30;;
15061;SDS011;7630;50.306;8.566;2023-03-14T08:58:12;2.07;;;1.60;;
15061;SDS011;7630;50.306;8.566;2023-03-14T09:02:13;1.63;;;1.53;;
15061;SDS011;7630;50.306;8.566;2023-03-14T09:06:15;1.50;;;1.40;;
15061;SDS011;7630;50.306;8.566;2023-03-14T09:10:18;1.70;;;1.60;;
15061;SDS011;7630;50.306;8.566;2023-03-14T09:14:20;2.23;;;1.37;;
15061;SDS011;7630;50.306;8.566;2023-03-14T09:18:23;2.00;;;1.90;;
15061;SDS011;7630;50.306;8.566;2023-03-14T09:22:24;2.13;;;1.53;;
15061;SDS011;7630;50.306;8.566;2023-03-14T09:26:25;1.43;;;1.20;;
15061;SDS011;7630;50.306;8.566;2023-03-14T09:30:26;1.40;;;1.30;;
15061;SDS011;7630;50.306;8.566;2023-03-14T09:34:28;2.33;;;1.60;;
15061;SDS011;7630;50.306;8.566;2023-03-14T09:38:29;1.40;;;1.30;;
15061;SDS011;7630;50.306;8.566;2023-03-14T09:42:31;2.40;;;1.67;;
15061;SDS011;7630;50.306;8.566;2023-03-14T09:46:33;1.70;;;1.40;;
15061;SDS011;7630;50.306;8.566;2023-03-14T09:50:42;4.50;;;0.90;;
15061;SDS011;7630;50.306;8.566;2023-03-14T09:54:47;2.63;;;0.93;;
15061;SDS011;7630;50.306;8.566;2023-03-14T09:58:51;1.23;;;1.13;;
15061;SDS011;7630;50.306;8.566;2023-03-14T10:02:56;1.40;;;1.30;;
15061;SDS011;7630;50.306;8.566;2023-03-14T10:07:02;1.03;;;1.00;;
15061;SDS011;7630;50.306;8.566;2023-03-14T10:11:05;2.10;;;1.27;;
15061;SDS011;7630;50.306;8.566;2023-03-14T10:15:09;1.13;;;1.03;;
15061;SDS011;7630;50.306;8.566;2023-03-14T10:19:13;1.50;;;1.27;;
15061;SDS011;7630;50.306;8.566;2023-03-14T10:27:28;2.10;;;1.90;;
15061;SDS011;7630;50.306;8.566;2023-03-14T10:31:45;4.27;;;3.70;;
15061;SDS011;7630;50.306;8.566;2023-03-14T10:35:54;2.50;;;2.30;;
15061;SDS011;7630;50.306;8.566;2023-03-14T10:40:01;3.40;;;3.10;;
15061;SDS011;7630;50.306;8.566;2023-03-14T10:44:05;3.00;;;2.80;;
15061;SDS011;7630;50.306;8.566;2023-03-14T10:48:18;2.03;;;1.93;;
15061;SDS011;7630;50.306;8.566;2023-03-14T10:52:24;1.77;;;1.67;;
15061;SDS011;7630;50.306;8.566;2023-03-14T10:56:35;4.80;;;1.23;;
15061;SDS011;7630;50.306;8.566;2023-03-14T11:00:37;1.20;;;1.10;;
15061;SDS011;7630;50.306;8.566;2023-03-14T11:26:26;1.60;;;1.50;;
15061;SDS011;7630;50.306;8.566;2023-03-14T11:30:40;2.30;;;1.00;;
15061;SDS011;7630;50.306;8.566;2023-03-14T11:34:53;0.90;;;0.90;;
15061;SDS011;7630;50.306;8.566;2023-03-14T11:38:56;0.97;;;0.97;;
15061;SDS011;7630;50.306;8.566;2023-03-14T11:47:37;0.90;;;0.90;;
15061;SDS011;7630;50.306;8.566;2023-03-14T11:51:43;1.37;;;1.27;;
15061;SDS011;7630;50.306;8.566;2023-03-14T11:55:46;2.43;;;0.70;;
15061;SDS011;7630;50.306;8.566;2023-03-14T12:08:49;1.57;;;1.47;;
15061;SDS011;7630;50.306;8.566;2023-03-14T12:12:51;0.90;;;0.90;;
15061;SDS011;7630;50.306;8.566;2023-03-14T12:16:54;1.43;;;1.33;;
15061;SDS011;7630;50.306;8.566;2023-03-14T12:20:58;5.47;;;2.97;;
15061;SDS011;7630;50.306;8.566;2023-03-14T12:25:04;1.87;;;1.60;;
15061;SDS011;7630;50.306;8.566;2023-03-14T12:29:16;3.07;;;2.90;;
15061;SDS011;7630;50.306;8.566;2023-03-14T12:37:42;2.13;;;2.00;;
15061;SDS011;7630;50.306;8.566;2023-03-14T12:41:42;1.70;;;1.60;;
15061;SDS011;7630;50.306;8.566;2023-03-14T12:46:06;1.73;;;1.63;;
15061;SDS011;7630;50.306;8.566;2023-03-14T12:50:07;2.00;;;1.87;;
15061;SDS011;7630;50.306;8.566;2023-03-14T12:58:26;3.60;;;2.67;;
15061;SDS011;7630;50.306;8.566;2023-03-14T13:02:42;2.10;;;2.00;;
15061;SDS011;7630;50.306;8.566;2023-03-14T13:06:52;2.20;;;2.10;;
15061;SDS011;7630;50.306;8.566;2023-03-14T13:10:57;2.50;;;2.40;;
15061;SDS011;7630;50.306;8.566;2023-03-14T13:14:59;2.37;;;2.20;;
15061;SDS011;7630;50.306;8.566;2023-03-14T13:19:03;3.07;;;2.97;;
15061;SDS011;7630;50.306;8.566;2023-03-14T13:23:28;3.13;;;2.93;;
15061;SDS011;7630;50.306;8.566;2023-03-14T13:27:29;3.87;;;3.57;;
15061;SDS011;7630;50.306;8.566;2023-03-14T13:31:31;3.83;;;3.53;;
15061;SDS011;7630;50.306;8.566;2023-03-14T13:35:44;3.47;;;3.23;;
15061;SDS011;7630;50.306;8.566;2023-03-14T13:39:43;2.40;;;2.30;;
15061;SDS011;7630;50.306;8.566;2023-03-14T13:44:07;2.57;;;2.47;;
15061;SDS011;7630;50.306;8.566;2023-03-14T13:48:10;2.37;;;2.27;;
15061;SDS011;7630;50.306;8.566;2023-03-14T13:56:32;3.07;;;2.60;;
15061;SDS011;7630;50.306;8.566;2023-03-14T14:00:34;1.33;;;1.33;;
15061;SDS011;7630;50.306;8.566;2023-03-14T14:04:36;1.03;;;1.00;;
15061;SDS011;7630;50.306;8.566;2023-03-14T14:08:40;1.70;;;1.60;;
15061;SDS011;7630;50.306;8.566;2023-03-14T14:12:43;1.63;;;1.53;;
15061;SDS011;7630;50.306;8.566;2023-03-14T14:16:53;1.37;;;1.30;;
15061;SDS011;7630;50.306;8.566;2023-03-14T14:20:55;1.73;;;1.63;;
15061;SDS011;7630;50.306;8.566;2023-03-14T14:24:57;1.90;;;1.70;;
15061;SDS011;7630;50.306;8.566;2023-03-14T14:29:04;1.10;;;1.10;;
15061;SDS011;7630;50.306;8.566;2023-03-14T14:33:19;1.77;;;1.67;;
15061;SDS011;7630;50.306;8.566;2023-03-14T14:37:28;1.93;;;1.80;;
15061;SDS011;7630;50.306;8.566;2023-03-14T14:41:33;2.20;;;2.10;;
15061;SDS011;7630;50.306;8.566;2023-03-14T14:45:36;2.30;;;2.20;;
15061;SDS011;7630;50.306;8.566;2023-03-14T14:49:37;2.30;;;2.20;;
15061;SDS011;7630;50.306;8.566;2023-03-14T14:53:40;3.13;;;2.93;;
15061;SDS011;7630;50.306;8.566;2023-03-14T14:57:48;3.00;;;2.83;;
15061;SDS011;7630;50.306;8.566;2023-03-14T15:02:03;4.40;;;3.73;;
15061;SDS011;7630;50.306;8.566;2023-03-14T15:06:05;4.37;;;3.97;;
15061;SDS011;7630;50.306;8.566;2023-03-14T15:10:09;5.50;;;5.00;;
15061;SDS011;7630;50.306;8.566;2023-03-14T15:14:12;6.27;;;4.83;;
15061;SDS011;7630;50.306;8.566;2023-03-14T15:18:14;5.73;;;5.33;;
15061;SDS011;7630;50.306;8.566;2023-03-14T15:22:18;5.77;;;5.37;;
15061;SDS011;7630;50.306;8.566;2023-03-14T15:26:27;4.23;;;3.83;;
15061;SDS011;7630;50.306;8.566;2023-03-14T15:30:26;6.13;;;5.57;;
15061;SDS011;7630;50.306;8.566;2023-03-14T15:34:28;7.00;;;6.17;;
15061;SDS011;7630;50.306;8.566;2023-03-14T15:38:29;7.03;;;6.43;;
15061;SDS011;7630;50.306;8.566;2023-03-14T15:42:30;7.83;;;7.13;;
15061;SDS011;7630;50.306;8.566;2023-03-14T15:46:31;4.87;;;4.47;;
15061;SDS011;7630;50.306;8.566;2023-03-14T15:50:32;4.20;;;3.80;;
15061;SDS011;7630;50.306;8.566;2023-03-14T15:54:34;4.03;;;3.70;;
15061;SDS011;7630;50.306;8.566;2023-03-14T15:58:36;3.80;;;3.50;;
15061;SDS011;7630;50.306;8.566;2023-03-14T16:02:39;2.73;;;2.53;;
15061;SDS011;7630;50.306;8.566;2023-03-14T16:06:42;3.10;;;2.90;;
15061;SDS011;7630;50.306;8.566;2023-03-14T16:10:45;2.93;;;2.73;;
15061;SDS011;7630;50.306;8.566;2023-03-14T16:14:47;4.33;;;4.00;;
15061;SDS011;7630;50.306;8.566;2023-03-14T16:18:48;4.40;;;4.00;;
15061;SDS011;7630;50.306;8.566;2023-03-14T16:22:49;5.23;;;4.57;;
15061;SDS011;7630;50.306;8.566;2023-03-14T16:26:51;7.30;;;6.10;;
15061;SDS011;7630;50.306;8.566;2023-03-14T16:30:58;27.93;;;19.33;;
15061;SDS011;7630;50.306;8.566;2023-03-14T16:35:10;7.70;;;7.00;;
15061;SDS011;7630;50.306;8.566;2023-03-14T16:39:11;7.97;;;7.17;;
15061;SDS011;7630;50.306;8.566;2023-03-14T16:43:13;6.20;;;5.23;;
15061;SDS011;7630;50.306;8.566;2023-03-14T16:47:16;5.57;;;5.07;;
15061;SDS011;7630;50.306;8.566;2023-03-14T16:51:17;6.03;;;4.90;;
15061;SDS011;7630;50.306;8.566;2023-03-14T16:55:18;4.37;;;3.97;;
15061;SDS011;7630;50.306;8.566;2023-03-14T16:59:20;3.17;;;2.87;;
15061;SDS011;7630;50.306;8.566;2023-03-14T17:03:21;2.47;;;2.27;;
15061;SDS011;7630;50.306;8.566;2023-03-14T17:07:22;3.40;;;3.10;;
15061;SDS011;7630;50.306;8.566;2023-03-14T17:11:23;3.63;;;3.33;;
15061;SDS011;7630;50.306;8.566;2023-03-14T17:15:25;4.70;;;3.07;;
15061;SDS011;7630;50.306;8.566;2023-03-14T17:19:26;6.03;;;5.10;;
15061;SDS011;7630;50.306;8.566;2023-03-14T17:23:28;4.40;;;4.10;;
15061;SDS011;7630;50.306;8.566;2023-03-14T17:27:30;6.00;;;5.50;;
15061;SDS011;7630;50.306;8.566;2023-03-14T17:31:31;9.13;;;6.83;;
15061;SDS011;7630;50.306;8.566;2023-03-14T17:35:33;15.77;;;11.00;;
15061;SDS011;7630;50.306;8.566;2023-03-14T17:39:34;8.27;;;7.20;;
15061;SDS011;7630;50.306;8.566;2023-03-14T17:43:36;11.47;;;7.60;;
15061;SDS011;7630;50.306;8.566;2023-03-14T17:47:38;8.63;;;7.80;;
15061;SDS011;7630;50.306;8.566;2023-03-14T17:51:39;11.40;;;8.97;;
15061;SDS011;7630;50.306;8.566;2023-03-14T17:55:40;7.13;;;6.43;;
15061;SDS011;7630;50.306;8.566;2023-03-14T17:59:41;7.30;;;6.10;;
15061;SDS011;7630;50.306;8.566;2023-03-14T18:03:43;10.07;;;9.07;;
15061;SDS011;7630;50.306;8.566;2023-03-14T18:07:45;11.20;;;7.03;;
15061;SDS011;7630;50.306;8.566;2023-03-14T18:11:46;7.83;;;5.30;;
15061;SDS011;7630;50.306;8.566;2023-03-14T18:15:50;5.53;;;3.90;;
15061;SDS011;7630;50.306;8.566;2023-03-14T18:19:52;4.93;;;4.10;;
15061;SDS011;7630;50.306;8.566;2023-03-14T18:23:55;5.40;;;4.30;;
15061;SDS011;7630;50.306;8.566;2023-03-14T18:27:56;5.70;;;3.80;;
15061;SDS011;7630;50.306;8.566;2023-03-14T18:31:58;5.83;;;5.17;;
15061;SDS011;7630;50.306;8.566;2023-03-14T18:35:59;7.47;;;6.03;;
15061;SDS011;7630;50.306;8.566;2023-03-14T18:39:59;8.90;;;6.50;;
15061;SDS011;7630;50.306;8.566;2023-03-14T18:44:01;11.50;;;8.00;;
15061;SDS011;7630;50.306;8.566;2023-03-14T18:48:03;17.67;;;11.57;;
15061;SDS011;7630;50.306;8.566;2023-03-14T18:52:05;14.33;;;10.50;;
15061;SDS011;7630;50.306;8.566;2023-03-14T18:56:07;22.97;;;15.20;;
15061;SDS011;7630;50.306;8.566;2023-03-14T19:00:12;12.27;;;9.33;;
15061;SDS011;7630;50.306;8.566;2023-03-14T19:04:15;17.87;;;11.23;;
15061;SDS011;7630;50.306;8.566;2023-03-14T19:08:16;14.57;;;10.47;;
15061;SDS011;7630;50.306;8.566;2023-03-14T19:12:17;19.37;;;15.27;;
15061;SDS011;7630;50.306;8.566;2023-03-14T19:16:18;25.90;;;16.17;;
15061;SDS011;7630;50.306;8.566;2023-03-14T19:20:22;45.70;;;26.17;;
15061;SDS011;7630;50.306;8.566;2023-03-14T19:24:24;17.60;;;13.50;;
15061;SDS011;7630;50.306;8.566;2023-03-14T19:28:25;39.40;;;22.13;;
15061;SDS011;7630;50.306;8.566;2023-03-14T19:32:26;29.77;;;16.20;;
15061;SDS011;7630;50.306;8.566;2023-03-14T19:36:28;36.57;;;19.93;;
15061;SDS011;7630;50.306;8.566;2023-03-14T19:40:31;36.77;;;18.27;;
15061;SDS011;7630;50.306;8.566;2023-03-14T19:44:32;42.67;;;22.37;;
15061;SDS011;7630;50.306;8.566;2023-03-14T19:48:33;41.97;;;21.37;;
15061;SDS011;7630;50.306;8.566;2023-03-14T19:52:36;58.23;;;25.63;;
15061;SDS011;7630;50.306;8.566;2023-03-14T19:56:38;53.70;;;29.07;;
15061;SDS011;7630;50.306;8.566;2023-03-14T20:00:41;48.93;;;20.97;;
15061;SDS011;7630;50.306;8.566;2023-03-14T20:04:44;39.23;;;22.07;;
15061;SDS011;7630;50.306;8.566;2023-03-14T20:08:46;28.27;;;16.20;;
15061;SDS011;7630;50.306;8.566;2023-03-14T20:12:48;27.23;;;15.50;;
15061;SDS011;7630;50.306;8.566;2023-03-14T20:16:50;20.70;;;13.03;;
15061;SDS011;7630;50.306;8.566;2023-03-14T20:20:51;16.50;;;11.47;;
15061;SDS011;7630;50.306;8.566;2023-03-14T20:24:53;35.17;;;14.77;;
15061;SDS011;7630;50.306;8.566;2023-03-14T20:28:54;19.23;;;13.07;;
15061;SDS011;7630;50.306;8.566;2023-03-14T20:32:56;22.07;;;14.40;;
15061;SDS011;7630;50.306;8.566;2023-03-14T20:36:57;24.20;;;13.90;;
15061;SDS011;7630;50.306;8.566;2023-03-14T20:40:58;19.57;;;12.47;;
15061;SDS011;7630;50.306;8.566;2023-03-14T20:45:00;21.07;;;13.93;;
15061;SDS011;7630;50.306;8.566;2023-03-14T20:49:02;20.90;;;14.13;;
15061;SDS011;7630;50.306;8.566;2023-03-14T20:53:04;20.60;;;13.83;;
15061;SDS011;7630;50.306;8.566;2023-03-14T20:57:05;21.10;;;13.13;;
15061;SDS011;7630;50.306;8.566;2023-03-14T21:01:06;20.13;;;13.53;;
15061;SDS011;7630;50.306;8.566;2023-03-14T21:05:08;24.17;;;13.20;;
15061;SDS011;7630;50.306;8.566;2023-03-14T21:09:11;25.13;;;12.50;;
15061;SDS011;7630;50.306;8.566;2023-03-14T21:13:12;16.07;;;12.07;;
15061;SDS011;7630;50.306;8.566;2023-03-14T21:17:13;19.30;;;13.43;;
15061;SDS011;7630;50.306;8.566;2023-03-14T21:21:14;13.67;;;11.30;;
15061;SDS011;7630;50.306;8.566;2023-03-14T21:25:16;24.40;;;12.43;;
15061;SDS011;7630;50.306;8.566;2023-03-14T21:29:17;18.77;;;11.60;;
15061;SDS011;7630;50.306;8.566;2023-03-14T21:33:18;25.90;;;11.53;;
15061;SDS011;7630;50.306;8.566;2023-03-14T21:37:19;25.73;;;12.47;;
15061;SDS011;7630;50.306;8.566;2023-03-14T21:41:22;22.73;;;10.67;;
15061;SDS011;7630;50.306;8.566;2023-03-14T21:45:23;17.10;;;10.70;;
15061;SDS011;7630;50.306;8.566;2023-03-14T21:49:26;19.57;;;9.27;;
15061;SDS011;7630;50.306;8.566;2023-03-14T21:53:27;19.03;;;8.63;;
15061;SDS011;7630;50.306;8.566;2023-03-14T21:57:29;12.87;;;8.33;;
15061;SDS011;7630;50.306;8.566;2023-03-14T22:01:31;15.63;;;9.37;;
15061;SDS011;7630;50.306;8.566;2023-03-14T22:05:32;17.03;;;7.90;;
15061;SDS011;7630;50.306;8.566;2023-03-14T22:09:33;17.20;;;7.87;;
15061;SDS011;7630;50.306;8.566;2023-03-14T22:13:35;17.03;;;8.63;;
15061;SDS011;7630;50.306;8.566;2023-03-14T22:17:37;19.47;;;9.70;;
15061;SDS011;7630;50.306;8.566;2023-03-14T22:21:38;17.67;;;8.53;;
15061;SDS011;7630;50.306;8.566;2023-03-14T22:25:44;12.27;;;8.07;;
15061;SDS011;7630;50.306;8.566;2023-03-14T22:29:47;21.90;;;10.00;;
15061;SDS011;7630;50.306;8.566;2023-03-14T22:33:48;17.20;;;8.83;;
15061;SDS011;7630;50.306;8.566;2023-03-14T22:37:49;21.50;;;8.40;;
15061;SDS011;7630;50.306;8.566;2023-03-14T22:41:50;16.17;;;10.77;;
15061;SDS011;7630;50.306;8.566;2023-03-14T22:46:01;22.23;;;11.47;;
15061;SDS011;7630;50.306;8.566;2023-03-14T22:50:03;17.37;;;8.00;;
15061;SDS011;7630;50.306;8.566;2023-03-14T22:54:06;17.77;;;9.10;;
15061;SDS011;7630;50.306;8.566;2023-03-14T22:58:07;18.73;;;12.33;;
15061;SDS011;7630;50.306;8.566;2023-03-14T23:02:08;20.53;;;10.47;;
15061;SDS011;7630;50.306;8.566;2023-03-14T23:06:09;16.17;;;9.57;;
15061;SDS011;7630;50.306;8.566;2023-03-14T23:10:10;14.87;;;9.20;;
15061;SDS011;7630;50.306;8.566;2023-03-14T23:14:12;16.83;;;9.13;;
15061;SDS011;7630;50.306;8.566;2023-03-14T23:18:14;19.43;;;7.77;;
15061;SDS011;7630;50.306;8.566;2023-03-14T23:22:15;14.93;;;7.67;;
15061;SDS011;7630;50.306;8.566;2023-03-14T23:26:18;13.33;;;6.17;;
15061;SDS011;7630;50.306;8.566;2023-03-14T23:30:24;15.00;;;6.60;;
15061;SDS011;7630;50.306;8.566;2023-03-14T23:34:25;15.07;;;7.23;;
15061;SDS011;7630;50.306;8.566;2023-03-14T23:38:27;15.10;;;5.10;;
15061;SDS011;7630;50.306;8.566;2023-03-14T23:42:28;12.23;;;5.10;;
15061;SDS011;7630;50.306;8.566;2023-03-14T23:46:29;18.80;;;6.63;;
15061;SDS011;7630;50.306;8.566;2023-03-14T23:50:33;21.67;;;5.00;;
15061;SDS011;7630;50.306;8.566;2023-03-14T23:54:36;15.97;;;4.40;;
15061;SDS011;7630;50.306;8.566;2023-03-14T23:58:38;17.47;;;4.33;;
